Time;durP1;ratioP1;P1;durP2;ratioP2;P2;SDS_P1;SDS_P2;PMS_P1;PMS_P2;Temp;Humidity;BMP_temperature;BMP_pressure;BME280_temperature;BME280_humidity;BME280_pressure;Samples;Min_cycle;Max_cycle;Signal;HPM_P1;HPM_P2
2024/01/23 00:00:45;;;;;;;6.70;1.42;;;;;;;1.45;76.50;95162.91;6192935;23;20000;-91
2024/01/23 00:03:10;;;;;;;8.90;1.70;;;;;;;1.50;76.86;95175.25;6192722;23;20087;-91
2024/01/23 00:05:36;;;;;;;4.20;1.20;;;;;;;1.72;82.84;95172.59;6218029;23;20458;-90
2024/01/23 00:08:03;;;;;;;3.70;1.40;;;;;;;1.80;76.28;95173.22;6218058;23;20000;-91
2024/01/23 00:10:29;;;;;;;7.28;1.55;;;;;;;1.60;77.87;95177.50;6193731;23;20001;-91
2024/01/23 00:12:54;;;;;;;5.63;1.45;;;;;;;1.73;76.36;95180.16;6193380;23;20074;-91
2024/01/23 00:15:20;;;;;;;5.25;1.25;;;;;;;1.88;78.60;95184.41;6193291;23;20091;-91
2024/01/23 00:17:45;;;;;;;5.28;1.80;;;;;;;1.77;80.47;95189.13;6217808;23;19993;-93
2024/01/23 00:20:11;;;;;;;6.78;1.48;;;;;;;1.86;79.67;95187.16;6217612;23;20421;-91
2024/01/23 00:22:37;;;;;;;5.43;1.38;;;;;;;1.86;81.88;95171.66;6217826;23;20035;-92
2024/01/23 00:25:02;;;;;;;1.92;1.15;;;;;;;1.60;82.73;95159.41;6192859;23;20067;-91
2024/01/23 00:27:28;;;;;;;10.75;1.65;;;;;;;1.12;86.02;95160.91;6217526;23;20005;-91
2024/01/23 00:29:54;;;;;;;3.97;1.42;;;;;;;0.78;91.72;95154.69;6193174;23;19993;-91
2024/01/23 00:32:19;;;;;;;1.42;1.00;;;;;;;0.77;93.31;95150.53;6217991;23;20072;-91
2024/01/23 00:34:45;;;;;;;3.60;1.70;;;;;;;0.98;90.48;95152.28;6217662;23;19993;-92
2024/01/23 00:37:10;;;;;;;2.88;1.42;;;;;;;0.91;92.87;95152.22;6192916;23;20318;-91
2024/01/23 00:39:37;;;;;;;4.70;1.50;;;;;;;0.59;88.73;95143.22;6217743;23;20368;-90
2024/01/23 00:42:04;;;;;;;4.28;1.30;;;;;;;0.61;91.27;95149.81;6192550;23;19997;-91
2024/01/23 00:44:29;;;;;;;4.28;1.70;;;;;;;0.55;92.47;95147.94;6192371;23;19992;-90
2024/01/23 00:46:56;;;;;;;4.32;1.98;;;;;;;0.49;90.18;95138.38;6217414;23;20011;-91
2024/01/23 00:49:21;;;;;;;8.63;1.92;;;;;;;0.45;93.26;95147.47;6217415;23;20000;-91
2024/01/23 00:51:47;;;;;;;4.80;1.70;;;;;;;0.27;98.87;95167.53;6193052;23;20079;-90
2024/01/23 00:54:12;;;;;;;5.78;1.90;;;;;;;0.41;86.53;95165.09;6217231;23;20027;-91
2024/01/23 00:56:41;;;;;;;5.78;2.10;;;;;;;0.56;78.53;95152.13;6217261;23;20322;-92
2024/01/23 00:59:07;;;;;;;4.05;1.55;;;;;;;0.51;80.35;95154.47;6216821;23;20399;-90
2024/01/23 01:01:33;;;;;;;7.43;2.10;;;;;;;0.59;79.12;95143.22;6192175;23;20001;-90
2024/01/23 01:03:58;;;;;;;8.13;1.60;;;;;;;0.61;79.17;95138.66;6192443;23;20402;-91
2024/01/23 01:06:24;;;;;;;5.22;1.83;;;;;;;0.69;78.89;95139.34;6192348;23;20007;-91
2024/01/23 01:08:49;;;;;;;4.35;1.80;;;;;;;0.64;83.69;95135.72;6217165;23;20000;-90
2024/01/23 01:11:14;;;;;;;6.20;2.08;;;;;;;0.65;85.54;95129.59;6192720;23;20007;-92
2024/01/23 01:13:40;;;;;;;7.10;1.70;;;;;;;0.62;86.40;95132.53;6192549;23;20000;-91
2024/01/23 01:16:06;;;;;;;4.63;1.23;;;;;;;0.65;89.67;95140.69;6192391;23;20001;-91
2024/01/23 01:18:31;;;;;;;5.25;1.48;;;;;;;0.68;87.16;95132.59;6192281;23;20008;-91
2024/01/23 01:20:57;;;;;;;4.25;1.50;;;;;;;0.55;87.55;95128.13;6192615;23;20311;-92
2024/01/23 01:23:22;;;;;;;9.52;1.60;;;;;;;0.68;87.81;95132.59;6192174;23;19999;-91
2024/01/23 01:25:47;;;;;;;1.88;1.23;;;;;;;0.52;91.82;95127.69;6191944;23;20034;-92
2024/01/23 01:28:14;;;;;;;4.82;1.33;;;;;;;0.51;94.17;95131.25;6217635;23;20001;-90
2024/01/23 01:30:40;;;;;;;3.13;1.52;;;;;;;0.50;91.10;95130.47;6192465;23;20402;-92
2024/01/23 01:33:06;;;;;;;5.20;1.55;;;;;;;0.41;95.40;95131.56;6192131;23;20007;-92
2024/01/23 01:35:32;;;;;;;3.38;1.55;;;;;;;0.28;100.00;95145.91;6191983;23;20008;-91
2024/01/23 01:37:57;;;;;;;2.92;1.40;;;;;;;0.67;100.00;95143.09;6192390;23;20402;-90
2024/01/23 01:40:25;;;;;;;3.67;1.42;;;;;;;0.77;100.00;95143.56;6192945;23;20007;-91
2024/01/23 01:42:52;;;;;;;3.78;1.50;;;;;;;0.93;100.00;95145.09;6192034;23;19996;-91
2024/01/23 01:45:17;;;;;;;3.75;1.38;;;;;;;0.86;98.69;95149.38;6192007;23;20460;-91
2024/01/23 01:47:43;;;;;;;6.93;1.60;;;;;;;0.66;100.00;95139.72;6216984;23;20080;-91
2024/01/23 01:50:09;;;;;;;3.17;1.17;;;;;;;0.67;100.00;95143.88;6192167;23;20103;-91
2024/01/23 01:52:37;;;;;;;5.05;1.83;;;;;;;0.60;100.00;95143.06;6191906;23;20027;-91
2024/01/23 01:55:03;;;;;;;6.40;1.30;;;;;;;0.65;100.00;95142.50;6192257;23;20001;-91
2024/01/23 01:57:33;;;;;;;2.88;1.30;;;;;;;0.86;100.00;95141.66;6192025;23;19996;-91
2024/01/23 01:59:58;;;;;;;4.40;1.27;;;;;;;0.92;100.00;95138.34;6192494;23;20008;-91
2024/01/23 02:02:24;;;;;;;3.22;1.33;;;;;;;0.90;100.00;95139.50;6192075;23;20001;-91
2024/01/23 02:04:49;;;;;;;9.73;1.67;;;;;;;0.80;100.00;95135.47;6191950;23;20075;-92
2024/01/23 02:07:15;;;;;;;6.22;1.58;;;;;;;0.67;100.00;95141.31;6191799;23;20015;-92
2024/01/23 02:09:43;;;;;;;5.07;1.63;;;;;;;0.85;100.00;95132.31;6191834;23;20061;-91
2024/01/23 02:12:09;;;;;;;5.38;1.23;;;;;;;0.98;100.00;95140.16;6191446;23;20028;-91
2024/01/23 02:14:34;;;;;;;3.88;1.30;;;;;;;0.94;100.00;95126.03;6192072;23;20000;-91
2024/01/23 02:17:00;;;;;;;3.70;1.05;;;;;;;0.95;100.00;95148.28;6191965;23;20087;-90
2024/01/23 02:19:26;;;;;;;5.32;1.20;;;;;;;0.79;100.00;95141.63;6192117;23;20035;-91
2024/01/23 02:21:51;;;;;;;5.57;2.05;;;;;;;0.92;100.00;95155.59;6217078;23;20000;-90
2024/01/23 02:24:17;;;;;;;3.47;1.50;;;;;;;1.07;100.00;95156.28;6191970;23;20007;-91
2024/01/23 02:26:42;;;;;;;5.40;1.88;;;;;;;0.93;100.00;95163.16;6191586;23;20044;-90
2024/01/23 02:29:09;;;;;;;5.65;1.63;;;;;;;0.90;100.00;95150.63;6191727;23;20456;-91
2024/01/23 02:31:35;;;;;;;3.88;1.73;;;;;;;0.79;100.00;95162.25;6191719;23;20012;-92
2024/01/23 02:34:00;;;;;;;6.07;1.77;;;;;;;0.73;100.00;95165.56;6216919;23;19993;-91
2024/01/23 02:36:25;;;;;;;2.65;1.33;;;;;;;0.60;100.00;95165.44;6191697;23;20001;-92
2024/01/23 02:38:53;;;;;;;4.50;1.48;;;;;;;0.55;100.00;95169.38;6192079;23;20028;-90
2024/01/23 02:41:19;;;;;;;4.03;1.27;;;;;;;0.44;100.00;95174.25;6191217;23;19997;-91
2024/01/23 02:43:44;;;;;;;7.05;1.60;;;;;;;0.46;100.00;95172.28;6216434;23;20409;-91
2024/01/23 02:46:10;;;;;;;9.20;1.83;;;;;;;0.46;100.00;95167.13;6191688;23;20009;-91
2024/01/23 02:48:35;;;;;;;3.22;1.38;;;;;;;0.35;100.00;95173.53;6216355;23;20046;-91
2024/01/23 02:51:00;;;;;;;2.45;1.55;;;;;;;0.41;100.00;95177.97;6191561;23;20011;-91
2024/01/23 02:53:26;;;;;;;4.95;1.67;;;;;;;0.39;100.00;95170.41;6191521;23;20003;-90
2024/01/23 02:55:51;;;;;;;7.18;1.50;;;;;;;0.37;100.00;95151.75;6191471;23;20005;-91
2024/01/23 02:58:20;;;;;;;6.25;1.63;;;;;;;0.38;100.00;95168.03;6192018;23;20001;-90
2024/01/23 03:00:46;;;;;;;3.40;1.80;;;;;;;0.44;100.00;95156.19;6191701;23;20024;-91
2024/01/23 03:03:11;;;;;;;5.78;1.73;;;;;;;0.47;100.00;95153.25;6216186;23;19996;-91
2024/01/23 03:05:37;;;;;;;4.75;1.70;;;;;;;0.21;100.00;95152.00;6216530;23;20004;-90
2024/01/23 03:08:02;;;;;;;3.47;1.42;;;;;;;0.25;100.00;95148.06;6216038;23;20000;-91
2024/01/23 03:10:28;;;;;;;4.45;1.92;;;;;;;0.35;100.00;95164.03;6217403;23;20005;-89
2024/01/23 03:12:54;;;;;;;4.40;1.90;;;;;;;0.26;100.00;95168.50;6218190;23;19997;-91
2024/01/23 03:15:19;;;;;;;8.80;1.58;;;;;;;0.25;100.00;95173.84;6216111;23;20024;-91
2024/01/23 03:17:45;;;;;;;5.53;1.83;;;;;;;0.36;100.00;95175.94;6191489;23;20008;-91
2024/01/23 03:20:11;;;;;;;4.05;2.00;;;;;;;0.41;100.00;95173.59;6216339;23;20003;-90
2024/01/23 03:22:36;;;;;;;4.50;1.50;;;;;;;0.46;100.00;95185.16;6216469;23;20001;-90
2024/01/23 03:25:02;;;;;;;4.93;1.60;;;;;;;0.59;100.00;95189.63;6218366;23;19993;-91
2024/01/23 03:27:27;;;;;;;4.88;1.80;;;;;;;0.65;100.00;95186.34;6219292;23;20004;-90
2024/01/23 03:29:53;;;;;;;10.63;3.75;;;;;;;0.58;100.00;95198.38;6218050;23;20445;-90
2024/01/23 03:32:19;;;;;;;8.18;2.60;;;;;;;0.49;100.00;95200.25;6218054;23;20008;-91
2024/01/23 03:34:44;;;;;;;4.55;1.83;;;;;;;0.41;100.00;95198.59;6218122;23;19997;-90
2024/01/23 03:37:10;;;;;;;9.70;2.58;;;;;;;0.39;100.00;95213.47;6218085;23;19997;-90
2024/01/23 03:40:05;;;;;;;6.65;2.10;;;;;;;0.35;100.00;95223.31;6218519;23;20004;-91
2024/01/23 03:42:31;;;;;;;5.25;1.58;;;;;;;0.36;100.00;95209.44;6218339;23;20005;-91
2024/01/23 03:44:56;;;;;;;7.43;2.33;;;;;;;0.26;100.00;95208.94;6218272;23;20000;-92
2024/01/23 03:47:22;;;;;;;5.82;2.03;;;;;;;0.35;100.00;95200.13;6192959;23;20062;-91
2024/01/23 03:49:47;;;;;;;7.50;2.05;;;;;;;0.56;100.00;95201.13;6219476;23;20004;-91
2024/01/23 03:52:13;;;;;;;4.93;1.83;;;;;;;0.50;100.00;95214.75;6218333;23;20007;-91
2024/01/23 03:54:38;;;;;;;7.32;1.90;;;;;;;0.35;100.00;95213.00;6217911;23;20056;-91
2024/01/23 03:57:04;;;;;;;5.63;1.52;;;;;;;0.46;100.00;95223.84;6218356;23;20003;-92
2024/01/23 03:59:29;;;;;;;6.60;2.03;;;;;;;0.44;100.00;95213.69;6193016;23;20000;-91
2024/01/23 04:01:55;;;;;;;5.15;2.40;;;;;;;0.42;100.00;95211.28;6217986;23;20079;-92
2024/01/23 04:04:21;;;;;;;11.05;3.53;;;;;;;0.54;100.00;95221.13;6218268;23;19997;-91
2024/01/23 04:06:47;;;;;;;10.52;2.75;;;;;;;0.61;100.00;95213.47;6217873;23;20051;-91
2024/01/23 04:09:12;;;;;;;5.43;2.25;;;;;;;0.60;100.00;95211.88;6193039;23;19996;-91
2024/01/23 04:11:38;;;;;;;10.60;2.78;;;;;;;0.77;100.00;95227.91;6217626;23;20087;-91
2024/01/23 04:14:03;;;;;;;8.05;2.78;;;;;;;0.73;100.00;95226.69;6218194;23;19997;-90
2024/01/23 04:16:28;;;;;;;5.47;2.22;;;;;;;1.00;100.00;95227.72;6217844;23;19998;-91
2024/01/23 04:18:54;;;;;;;5.18;2.00;;;;;;;0.85;100.00;95225.19;6217509;23;20068;-91
2024/01/23 04:21:20;;;;;;;7.40;2.20;;;;;;;0.60;100.00;95227.34;6217515;23;20410;-90
2024/01/23 04:23:45;;;;;;;9.27;2.67;;;;;;;0.42;100.00;95231.13;6217605;23;20003;-91
2024/01/23 04:26:11;;;;;;;7.18;2.13;;;;;;;0.63;100.00;95225.19;6217497;23;20004;-91
2024/01/23 04:28:36;;;;;;;6.85;1.83;;;;;;;0.61;100.00;95221.19;6217772;23;20001;-91
2024/01/23 04:31:02;;;;;;;4.60;2.00;;;;;;;0.33;100.00;95214.97;6192672;23;20024;-90
2024/01/23 04:33:27;;;;;;;9.27;2.35;;;;;;;0.32;100.00;95221.13;6217305;23;20008;-92
2024/01/23 04:35:53;;;;;;;3.88;1.85;;;;;;;0.34;100.00;95215.75;6217595;23;20000;-92
2024/01/23 04:38:18;;;;;;;6.22;2.30;;;;;;;0.01;100.00;95237.59;6217961;23;20008;-88
2024/01/23 04:40:44;;;;;;;5.63;2.22;;;;;;;-0.02;100.00;95245.66;6192746;23;20004;-91
2024/01/23 04:43:09;;;;;;;4.20;2.08;;;;;;;-0.08;100.00;95247.19;6218261;23;20005;-90
2024/01/23 04:45:34;;;;;;;9.63;2.67;;;;;;;0.07;100.00;95241.22;6217271;23;19992;-90
2024/01/23 04:48:00;;;;;;;5.63;1.98;;;;;;;0.18;100.00;95252.88;6217528;23;20011;-90
2024/01/23 04:50:25;;;;;;;8.65;1.95;;;;;;;0.47;100.00;95243.47;6217032;23;20392;-90
2024/01/23 04:52:56;;;;;;;6.50;1.80;;;;;;;0.58;100.00;95253.34;6192594;23;20028;-90
2024/01/23 04:55:21;;;;;;;5.45;1.88;;;;;;;0.56;100.00;95243.19;6193030;23;20004;-90
2024/01/23 04:57:47;;;;;;;4.13;1.75;;;;;;;0.52;100.00;95236.81;6192159;23;20314;-90
2024/01/23 05:00:13;;;;;;;5.47;1.98;;;;;;;0.55;100.00;95243.34;6192440;23;20007;-90
2024/01/23 05:02:38;;;;;;;3.15;1.63;;;;;;;0.57;100.00;95249.13;6217132;23;20093;-90
2024/01/23 05:05:04;;;;;;;11.27;2.55;;;;;;;0.52;100.00;95241.97;6217189;23;20000;-91
2024/01/23 05:07:29;;;;;;;10.32;4.70;;;;;;;0.48;100.00;95239.91;6192277;23;20072;-90
2024/01/23 05:09:55;;;;;;;4.57;2.10;;;;;;;0.47;100.00;95238.31;6217467;23;19996;-90
2024/01/23 05:12:20;;;;;;;3.20;1.70;;;;;;;0.46;100.00;95247.03;6218207;23;20068;-91
2024/01/23 05:14:46;;;;;;;7.00;2.20;;;;;;;0.54;100.00;95254.66;6215046;23;20091;-91
2024/01/23 05:17:11;;;;;;;4.50;2.38;;;;;;;0.59;100.00;95256.69;6217307;23;20446;-90
2024/01/23 05:19:37;;;;;;;7.00;1.98;;;;;;;0.64;100.00;95247.44;6218069;23;20075;-91
2024/01/23 05:22:03;;;;;;;4.65;2.00;;;;;;;0.61;100.00;95252.97;6192123;23;19996;-90
2024/01/23 05:24:29;;;;;;;8.93;2.20;;;;;;;0.51;100.00;95252.44;6192625;23;20003;-91
2024/01/23 05:26:54;;;;;;;4.07;1.80;;;;;;;0.25;100.00;95251.16;6192405;23;20001;-91
2024/01/23 05:29:19;;;;;;;10.95;2.80;;;;;;;0.25;100.00;95246.00;6192162;23;20011;-88
2024/01/23 05:31:45;;;;;;;5.50;1.75;;;;;;;0.46;100.00;95241.88;6217233;23;20003;-90
2024/01/23 05:34:10;;;;;;;6.32;1.83;;;;;;;0.44;100.00;95249.00;6217232;23;20402;-91
2024/01/23 05:36:36;;;;;;;4.10;1.95;;;;;;;0.52;100.00;95246.31;6192715;23;20035;-94
2024/01/23 05:39:01;;;;;;;8.45;2.15;;;;;;;0.52;100.00;95247.13;6192398;23;20005;-93
2024/01/23 05:41:27;;;;;;;7.38;1.73;;;;;;;0.44;100.00;95242.06;6193212;23;20005;-92
2024/01/23 05:43:52;;;;;;;5.05;2.10;;;;;;;0.32;100.00;95254.63;6192665;23;20007;-93
2024/01/23 05:46:18;;;;;;;4.07;1.98;;;;;;;0.28;100.00;95261.91;6217593;23;20418;-95
2024/01/23 05:48:43;;;;;;;5.00;2.03;;;;;;;0.25;100.00;95256.31;6192967;23;19996;-92
2024/01/23 05:51:09;;;;;;;7.72;1.83;;;;;;;0.24;100.00;95265.84;6192366;23;20091;-92
2024/01/23 05:53:35;;;;;;;7.15;1.83;;;;;;;0.09;100.00;95267.63;6192006;23;20387;-91
2024/01/23 05:56:01;;;;;;;11.68;1.92;;;;;;;0.09;100.00;95270.22;6192452;23;20004;-92
2024/01/23 05:58:26;;;;;;;6.13;1.77;;;;;;;0.13;100.00;95279.19;6192716;23;20000;-89
2024/01/23 06:00:52;;;;;;;3.83;1.80;;;;;;;0.01;100.00;95284.00;6216538;23;20007;-89
2024/01/23 06:03:17;;;;;;;6.82;2.92;;;;;;;-0.06;100.00;95275.34;6216768;23;20015;-89
2024/01/23 06:05:43;;;;;;;8.27;3.22;;;;;;;-0.03;100.00;95277.56;6217158;23;20001;-88
2024/01/23 06:08:08;;;;;;;5.97;2.47;;;;;;;0.00;100.00;95287.53;6216546;23;20360;-89
2024/01/23 06:10:33;;;;;;;5.15;2.15;;;;;;;0.09;100.00;95286.47;6216558;23;20001;-89
2024/01/23 06:12:59;;;;;;;6.28;2.40;;;;;;;0.10;100.00;95288.06;6216614;23;19997;-88
2024/01/23 06:15:24;;;;;;;6.63;2.30;;;;;;;-0.05;100.00;95285.50;6191874;23;20003;-89
2024/01/23 06:17:50;;;;;;;8.10;2.40;;;;;;;-0.11;100.00;95298.28;6191874;23;20071;-89
2024/01/23 06:20:15;;;;;;;4.57;1.95;;;;;;;0.04;100.00;95303.44;6216319;23;20000;-89
2024/01/23 06:22:41;;;;;;;8.50;2.42;;;;;;;-0.06;100.00;95312.25;6216015;23;20047;-89
2024/01/23 06:25:08;;;;;;;6.07;2.45;;;;;;;0.06;100.00;95301.47;6216678;23;20079;-88
2024/01/23 06:27:33;;;;;;;4.65;1.98;;;;;;;0.07;100.00;95310.78;6191529;23;20398;-88
2024/01/23 06:29:59;;;;;;;4.65;2.33;;;;;;;0.11;100.00;95306.91;6191786;23;20074;-89
2024/01/23 06:32:25;;;;;;;6.07;2.17;;;;;;;0.08;100.00;95312.41;6191846;23;19996;-89
2024/01/23 06:34:53;;;;;;;10.98;2.22;;;;;;;0.21;100.00;95316.94;6191680;23;20083;-88
2024/01/23 06:37:19;;;;;;;5.50;2.20;;;;;;;0.38;100.00;95302.88;6216737;23;20000;-89
2024/01/23 06:39:45;;;;;;;5.22;2.42;;;;;;;0.52;100.00;95297.88;6192145;23;20004;-84
2024/01/23 06:42:11;;;;;;;9.38;2.22;;;;;;;0.39;100.00;95307.06;6215608;23;19996;-84
2024/01/23 06:44:36;;;;;;;6.80;1.98;;;;;;;0.35;100.00;95303.25;6216009;23;20083;-84
2024/01/23 06:47:02;;;;;;;4.03;2.30;;;;;;;0.29;100.00;95311.72;6215641;23;20425;-84
2024/01/23 06:49:27;;;;;;;4.05;1.90;;;;;;;0.46;100.00;95308.94;6215526;23;20032;-84
2024/01/23 06:51:52;;;;;;;5.85;2.25;;;;;;;0.26;100.00;95310.28;6215923;23;19997;-84
2024/01/23 06:54:18;;;;;;;6.60;2.83;;;;;;;0.38;100.00;95327.88;6215616;23;20083;-84
2024/01/23 06:56:45;;;;;;;9.50;3.17;;;;;;;0.73;100.00;95329.88;6216865;23;20046;-84
2024/01/23 06:59:12;;;;;;;8.88;2.97;;;;;;;0.57;100.00;95329.06;6215458;23;19996;-84
2024/01/23 07:01:38;;;;;;;11.25;3.08;;;;;;;0.35;100.00;95330.78;6215419;23;20001;-84
2024/01/23 07:04:03;;;;;;;11.93;2.83;;;;;;;0.33;100.00;95335.31;6215639;23;20003;-84
2024/01/23 07:06:29;;;;;;;9.95;3.53;;;;;;;0.44;100.00;95336.69;6215514;23;20076;-84
2024/01/23 07:08:54;;;;;;;8.18;2.70;;;;;;;0.55;100.00;95320.72;6215603;23;19993;-84
2024/01/23 07:11:20;;;;;;;6.50;2.60;;;;;;;0.77;100.00;95321.56;6190505;23;20000;-84
2024/01/23 07:13:46;;;;;;;8.35;2.00;;;;;;;1.03;100.00;95322.84;6190801;23;20000;-84
2024/01/23 07:16:11;;;;;;;8.75;2.42;;;;;;;1.01;100.00;95316.28;6190775;23;20412;-84
2024/01/23 07:18:37;;;;;;;5.70;2.67;;;;;;;1.07;100.00;95320.69;6215931;23;19996;-84
2024/01/23 07:21:02;;;;;;;4.80;2.15;;;;;;;1.02;100.00;95321.25;6215300;23;20004;-84
2024/01/23 07:23:28;;;;;;;10.65;3.08;;;;;;;1.12;100.00;95326.91;6191108;23;20023;-84
2024/01/23 07:25:53;;;;;;;7.70;2.45;;;;;;;1.22;100.00;95328.38;6215542;23;20008;-84
2024/01/23 07:28:18;;;;;;;6.03;1.88;;;;;;;1.34;100.00;95328.69;6216854;23;20076;-84
2024/01/23 07:30:44;;;;;;;7.28;2.58;;;;;;;1.39;100.00;95331.50;6215424;23;20307;-84
2024/01/23 07:33:09;;;;;;;8.63;2.50;;;;;;;1.39;100.00;95332.31;6190624;23;20000;-84
2024/01/23 07:35:35;;;;;;;7.43;2.35;;;;;;;1.51;100.00;95337.78;6215481;23;20000;-84
2024/01/23 07:38:00;;;;;;;4.80;2.25;;;;;;;1.38;100.00;95335.06;6210484;23;20413;-84
2024/01/23 07:40:26;;;;;;;5.43;2.00;;;;;;;1.30;100.00;95340.38;6190569;23;20024;-84
2024/01/23 07:42:51;;;;;;;14.55;2.35;;;;;;;1.26;100.00;95339.94;6215256;23;20004;-84
2024/01/23 07:45:17;;;;;;;3.97;2.22;;;;;;;1.37;100.00;95343.81;6215440;23;20001;-83
2024/01/23 07:47:42;;;;;;;6.13;2.42;;;;;;;1.42;100.00;95344.03;6190526;23;20087;-84
2024/01/23 07:50:08;;;;;;;8.18;2.40;;;;;;;1.47;100.00;95339.13;6215512;23;20012;-84
2024/01/23 07:52:35;;;;;;;5.78;2.13;;;;;;;1.64;100.00;95338.88;6215498;23;20027;-84
2024/01/23 07:55:01;;;;;;;4.53;2.20;;;;;;;1.81;100.00;95349.75;6215334;23;20007;-84
2024/01/23 07:57:27;;;;;;;9.00;1.98;;;;;;;1.79;100.00;95355.09;6215175;23;20039;-84
2024/01/23 07:59:52;;;;;;;9.80;2.70;;;;;;;1.92;100.00;95356.97;6215423;23;20294;-84
2024/01/23 08:02:18;;;;;;;7.93;2.35;;;;;;;1.93;100.00;95355.97;6190452;23;20005;-84
2024/01/23 08:04:43;;;;;;;8.50;2.45;;;;;;;2.01;100.00;95352.47;6190982;23;20011;-84
2024/01/23 08:07:08;;;;;;;4.28;2.08;;;;;;;2.19;100.00;95338.25;6190747;23;20001;-84
2024/01/23 08:09:36;;;;;;;4.55;2.22;;;;;;;2.31;100.00;95346.28;6191550;23;20424;-84
2024/01/23 08:12:01;;;;;;;3.78;1.98;;;;;;;2.23;100.00;95352.41;6217009;23;19997;-84
2024/01/23 08:14:27;;;;;;;5.03;2.22;;;;;;;2.44;100.00;95364.44;6192399;23;20058;-84
2024/01/23 08:16:52;;;;;;;6.65;2.53;;;;;;;2.47;100.00;95365.88;6217173;23;19989;-84
2024/01/23 08:19:18;;;;;;;5.68;2.17;;;;;;;2.48;100.00;95368.25;6192117;23;20004;-84
2024/01/23 08:21:44;;;;;;;3.78;1.77;;;;;;;2.50;100.00;95363.69;6192232;23;20314;-84
2024/01/23 08:24:09;;;;;;;6.15;2.13;;;;;;;2.73;100.00;95364.41;6192211;23;20402;-84
2024/01/23 08:26:34;;;;;;;5.18;2.30;;;;;;;2.71;100.00;95363.78;6218301;23;20004;-84
2024/01/23 08:29:00;;;;;;;6.53;2.17;;;;;;;2.69;100.00;95372.53;6217036;23;19996;-84
2024/01/23 08:31:25;;;;;;;7.57;1.90;;;;;;;2.76;100.00;95379.53;6216811;23;19998;-84
2024/01/23 08:33:51;;;;;;;5.57;2.55;;;;;;;2.85;100.00;95372.41;6217016;23;19992;-84
2024/01/23 08:36:16;;;;;;;7.60;2.97;;;;;;;2.82;100.00;95378.75;6216769;23;20000;-84
2024/01/23 08:38:43;;;;;;;5.88;2.40;;;;;;;2.95;100.00;95390.97;6192191;23;20027;-84
2024/01/23 08:41:09;;;;;;;5.55;2.25;;;;;;;3.05;100.00;95393.97;6217015;23;20011;-84
2024/01/23 08:43:35;;;;;;;4.57;2.22;;;;;;;3.20;100.00;95399.00;6191659;23;20008;-84
2024/01/23 08:46:00;;;;;;;11.38;2.42;;;;;;;3.35;100.00;95413.59;6216951;23;19992;-84
2024/01/23 08:48:28;;;;;;;10.07;2.47;;;;;;;3.49;100.00;95417.00;6216861;23;20046;-84
2024/01/23 08:50:53;;;;;;;10.75;2.28;;;;;;;3.64;100.00;95419.44;6216608;23;19996;-84
2024/01/23 08:53:19;;;;;;;5.78;2.30;;;;;;;3.60;100.00;95431.97;6216702;23;20104;-84
2024/01/23 08:55:44;;;;;;;6.57;2.80;;;;;;;3.47;100.00;95430.19;6218593;23;20064;-84
2024/01/23 08:58:10;;;;;;;7.75;2.40;;;;;;;3.60;100.00;95433.78;6216760;23;20320;-84
2024/01/23 09:00:35;;;;;;;4.97;2.30;;;;;;;3.82;100.00;95437.81;6191714;23;20067;-84
2024/01/23 09:03:01;;;;;;;8.02;2.15;;;;;;;4.02;100.00;95434.44;6217037;23;20001;-84
2024/01/23 09:05:26;;;;;;;5.00;2.15;;;;;;;4.21;100.00;95442.41;6216530;23;20032;-84
2024/01/23 09:07:51;;;;;;;6.53;2.58;;;;;;;4.23;100.00;95441.22;6216489;23;20087;-84
2024/01/23 09:10:18;;;;;;;7.93;2.53;;;;;;;4.27;100.00;95449.38;6217032;23;20047;-84
2024/01/23 09:12:43;;;;;;;5.45;2.60;;;;;;;4.39;100.00;95452.19;6191773;23;20087;-84
2024/01/23 09:15:09;;;;;;;6.63;2.17;;;;;;;4.41;100.00;95446.78;6216779;23;20076;-84
2024/01/23 09:17:36;;;;;;;9.00;2.45;;;;;;;4.36;100.00;95461.16;6216587;23;19996;-84
2024/01/23 09:20:02;;;;;;;6.95;2.20;;;;;;;4.41;100.00;95459.75;6216725;23;20358;-84
2024/01/23 09:22:30;;;;;;;8.65;2.08;;;;;;;4.48;100.00;95468.34;6216282;23;20051;-84
2024/01/23 09:24:57;;;;;;;5.72;2.05;;;;;;;4.66;100.00;95465.94;6217878;23;20000;-84
2024/01/23 09:27:22;;;;;;;6.60;2.15;;;;;;;4.69;100.00;95472.53;6191769;23;20009;-84
2024/01/23 09:29:48;;;;;;;7.15;2.33;;;;;;;4.76;100.00;95469.91;6191529;23;20019;-84
2024/01/23 09:32:13;;;;;;;7.63;2.47;;;;;;;4.85;100.00;95468.69;6216577;23;19999;-84
2024/01/23 09:34:39;;;;;;;5.00;2.40;;;;;;;4.83;100.00;95465.50;6216360;23;20092;-84
2024/01/23 09:37:04;;;;;;;6.38;2.30;;;;;;;4.87;100.00;95473.69;6216310;23;20047;-84
2024/01/23 09:39:29;;;;;;;7.20;2.10;;;;;;;4.92;100.00;95460.88;6216270;23;20007;-84
2024/01/23 09:41:59;;;;;;;11.32;2.22;;;;;;;4.94;100.00;95456.25;6216346;23;20403;-83
2024/01/23 09:44:24;;;;;;;3.80;1.95;;;;;;;5.04;100.00;95464.44;6216266;23;20004;-84
2024/01/23 09:46:51;;;;;;;6.18;2.20;;;;;;;5.09;100.00;95464.63;6191766;23;20001;-84
2024/01/23 09:49:17;;;;;;;6.30;1.67;;;;;;;5.24;100.00;95464.38;6191144;23;20028;-84
2024/01/23 09:51:43;;;;;;;4.45;2.03;;;;;;;5.44;100.00;95462.69;6191052;23;19995;-84
2024/01/23 09:54:10;;;;;;;6.93;2.55;;;;;;;5.54;100.00;95464.84;6191462;23;20433;-84
2024/01/23 09:56:37;;;;;;;6.05;2.50;;;;;;;5.65;100.00;95469.38;6216169;23;19993;-84
2024/01/23 09:59:03;;;;;;;7.82;2.72;;;;;;;5.69;100.00;95477.56;6191441;23;20004;-84
2024/01/23 10:01:29;;;;;;;6.32;2.33;;;;;;;5.75;100.00;95482.75;6191549;23;19996;-84
2024/01/23 10:03:57;;;;;;;8.73;2.13;;;;;;;5.80;100.00;95482.91;6191313;23;20000;-84
2024/01/23 10:06:23;;;;;;;3.47;2.10;;;;;;;5.82;100.00;95477.50;6191789;23;20074;-84
2024/01/23 10:08:49;;;;;;;6.10;2.17;;;;;;;5.77;100.00;95478.13;6216034;23;19996;-84
2024/01/23 10:11:14;;;;;;;4.05;2.17;;;;;;;5.76;100.00;95468.72;6215792;23;20460;-84
2024/01/23 10:13:42;;;;;;;7.18;1.90;;;;;;;5.71;100.00;95478.16;6191235;23;20071;-84
2024/01/23 10:16:07;;;;;;;8.90;2.58;;;;;;;5.68;100.00;95475.97;6191177;23;20083;-84
2024/01/23 10:18:33;;;;;;;6.10;1.98;;;;;;;5.79;100.00;95464.91;6216323;23;20000;-84
2024/01/23 10:20:58;;;;;;;4.38;2.10;;;;;;;5.72;100.00;95461.56;6190972;23;20001;-85
2024/01/23 10:23:25;;;;;;;10.00;2.45;;;;;;;5.74;100.00;95456.94;6191149;23;20008;-84
2024/01/23 10:25:50;;;;;;;5.55;2.70;;;;;;;5.98;100.00;95465.78;6190915;23;20139;-84
2024/01/23 10:28:17;;;;;;;4.40;2.22;;;;;;;5.95;100.00;95455.81;6190951;23;20083;-84
2024/01/23 10:30:45;;;;;;;5.60;2.08;;;;;;;5.97;100.00;95458.97;6215720;23;20008;-85
2024/01/23 10:33:11;;;;;;;3.83;1.98;;;;;;;6.13;100.00;95451.69;6215698;23;19992;-84
2024/01/23 10:35:36;;;;;;;8.35;2.10;;;;;;;6.20;100.00;95448.03;6191338;23;20054;-85
2024/01/23 10:38:03;;;;;;;5.55;2.05;;;;;;;6.32;100.00;95442.13;6215695;23;19995;-85
2024/01/23 10:40:29;;;;;;;7.15;2.50;;;;;;;6.30;100.00;95446.78;6191189;23;20005;-85
2024/01/23 10:42:56;;;;;;;6.78;1.83;;;;;;;6.27;100.00;95437.56;6191346;23;20011;-84
2024/01/23 10:45:22;;;;;;;4.80;1.90;;;;;;;6.45;100.00;95429.00;6191260;23;19996;-85
2024/01/23 10:47:48;;;;;;;5.45;1.85;;;;;;;6.47;100.00;95439.22;6215575;23;20073;-84
2024/01/23 10:50:14;;;;;;;8.48;2.00;;;;;;;6.56;100.00;95445.72;6215450;23;20001;-84
2024/01/23 10:52:40;;;;;;;5.72;2.10;;;;;;;6.66;100.00;95440.03;6190875;23;20314;-85
2024/01/23 10:55:06;;;;;;;4.55;2.22;;;;;;;6.73;100.00;95439.97;6215646;23;19992;-85
2024/01/23 10:57:36;;;;;;;5.40;1.90;;;;;;;6.83;100.00;95439.47;6190846;23;20000;-85
2024/01/23 11:00:08;;;;;;;5.65;2.10;;;;;;;6.92;100.00;95444.19;6191171;23;20020;-85
2024/01/23 11:03:06;;;;;;;3.05;1.92;;;;;;;7.09;100.00;95446.19;6191349;23;20028;-85
2024/01/23 11:05:48;;;;;;;5.18;2.00;;;;;;;7.22;100.00;95455.66;6216801;23;20000;-85
2024/01/23 11:08:28;;;;;;;6.68;1.40;;;;;;;7.24;100.00;95452.84;6190714;23;20028;-85
2024/01/23 11:11:09;;;;;;;3.53;2.05;;;;;;;7.29;100.00;95466.81;6215469;23;19996;-85
2024/01/23 11:13:48;;;;;;;8.40;1.85;;;;;;;7.29;100.00;95468.63;6212088;23;20008;-84
2024/01/23 11:16:13;;;;;;;5.82;2.15;;;;;;;7.42;100.00;95467.69;6190787;23;20090;-85
2024/01/23 11:18:40;;;;;;;7.38;3.00;;;;;;;7.46;100.00;95467.03;6215580;23;20398;-85
2024/01/23 11:21:05;;;;;;;8.40;2.78;;;;;;;7.42;100.00;95468.47;6215285;23;20382;-85
2024/01/23 11:23:39;;;;;;;12.20;3.92;;;;;;;7.48;100.00;95462.38;6216978;23;20001;-85
2024/01/23 11:26:12;;;;;;;;;;;;;;;7.50;100.00;95459.53;6215960;23;20353;-85
2024/01/23 11:28:38;;;;;;;7.20;2.77;;;;;;;7.59;100.00;95457.41;6215737;23;20293;-85